Time;durP1;ratioP1;P1;durP2;ratioP2;P2;SDS_P1;SDS_P2;PMS_P1;PMS_P2;Temp;Humidity;BMP_temperature;BMP_pressure;BME280_temperature;BME280_humidity;BME280_pressure;Samples;Min_cycle;Max_cycle;Signal;HPM_P1;HPM_P2
2023/02/06 00:02:02;;;;;;;31.70;28.40;;;5.90;99.90;;;;;;10535560;28;20579;-78
2023/02/06 00:07:05;;;;;;;32.35;29.02;;;5.90;99.90;;;;;;10495218;28;20313;-79
2023/02/06 00:12:07;;;;;;;32.63;29.25;;;5.90;99.90;;;;;;10527371;28;20230;-78
2023/02/06 00:17:09;;;;;;;33.97;30.30;;;6.10;99.90;;;;;;10528980;28;20259;-78
2023/02/06 00:22:13;;;;;;;37.17;33.17;;;6.10;99.90;;;;;;10503559;28;20228;-78
2023/02/06 00:27:15;;;;;;;35.53;31.77;;;6.00;99.90;;;;;;10524566;28;20606;-78
2023/02/06 00:32:17;;;;;;;36.47;32.60;;;5.80;99.90;;;;;;10507060;28;20616;-78
2023/02/06 00:37:20;;;;;;;37.40;33.33;;;5.90;99.90;;;;;;10503226;28;20223;-78
2023/02/06 00:42:22;;;;;;;39.17;34.90;;;5.90;99.90;;;;;;10524960;28;20235;-78
2023/02/06 00:47:24;;;;;;;40.80;34.00;;;5.80;99.90;;;;;;10525849;28;20236;-78
2023/02/06 00:52:28;;;;;;;41.10;34.67;;;5.80;99.90;;;;;;10505499;28;20228;-78
2023/02/06 00:57:30;;;;;;;41.50;34.40;;;5.80;99.90;;;;;;10505698;28;20250;-78
2023/02/06 01:02:32;;;;;;;39.70;33.90;;;5.90;99.90;;;;;;10523734;28;20216;-78
2023/02/06 01:07:37;;;;;;;38.47;33.25;;;6.00;99.90;;;;;;10523073;28;20714;-78
2023/02/06 01:12:39;;;;;;;38.93;33.90;;;6.10;99.90;;;;;;10509149;28;20198;-78
2023/02/06 01:17:41;;;;;;;39.40;33.37;;;6.20;99.90;;;;;;10504612;28;20835;-77
2023/02/06 01:22:45;;;;;;;43.70;36.10;;;6.20;99.90;;;;;;10524239;28;20238;-78
2023/02/06 01:27:47;;;;;;;39.60;34.07;;;6.10;99.90;;;;;;10523064;28;20264;-78
2023/02/06 01:32:49;;;;;;;38.27;33.47;;;6.00;99.90;;;;;;10514403;28;20234;-78
2023/02/06 01:37:52;;;;;;;42.03;35.38;;;6.00;99.90;;;;;;10497178;28;20227;-78
2023/02/06 01:42:54;;;;;;;41.30;35.30;;;6.10;99.90;;;;;;10525365;28;20222;-78
2023/02/06 01:48:01;;;;;;;40.70;35.17;;;6.10;99.90;;;;;;10528976;28;20247;-78
2023/02/06 01:53:06;;;;;;;37.37;33.17;;;6.20;99.90;;;;;;10490472;28;20196;-79
2023/02/06 01:58:11;;;;;;;41.88;33.95;;;6.20;99.90;;;;;;10505807;28;20231;-79
2023/02/06 02:03:14;;;;;;;43.17;35.80;;;6.20;99.90;;;;;;10501331;28;20434;-79
2023/02/06 02:08:20;;;;;;;42.27;34.37;;;6.10;99.90;;;;;;10521672;28;20234;-80
2023/02/06 02:13:22;;;;;;;43.17;36.17;;;6.00;99.90;;;;;;10501612;28;20302;-78
2023/02/06 02:18:43;;;;;;;41.63;36.03;;;6.10;99.90;;;;;;10503679;28;20314;-80
2023/02/06 02:23:55;;;;;;;46.37;35.13;;;6.00;99.90;;;;;;10506018;28;20209;-80
2023/02/06 02:29:48;;;;;;;44.33;34.67;;;5.90;99.90;;;;;;10505900;28;20241;-80
2023/02/06 02:35:09;;;;;;;47.70;35.53;;;5.90;99.90;;;;;;10504130;28;20306;-79
2023/02/06 02:40:20;;;;;;;43.20;36.90;;;5.80;99.90;;;;;;10525052;28;20236;-79
2023/02/06 02:45:28;;;;;;;47.57;37.30;;;5.70;99.90;;;;;;10490191;28;20212;-80
2023/02/06 02:50:32;;;;;;;44.87;36.90;;;5.60;99.90;;;;;;10507147;28;20257;-81
2023/02/06 02:55:35;;;;;;;41.30;35.57;;;5.60;99.90;;;;;;10498848;28;20208;-80
2023/02/06 03:00:44;;;;;;;38.77;34.53;;;5.60;99.90;;;;;;10499653;28;20227;-80
2023/02/06 03:06:01;;;;;;;45.83;37.90;;;5.60;99.90;;;;;;10531399;28;20211;-81
2023/02/06 03:11:10;;;;;;;40.53;36.03;;;5.60;99.90;;;;;;10522687;28;20584;-79
2023/02/06 03:16:17;;;;;;;44.57;38.03;;;5.80;99.90;;;;;;10527931;28;20674;-76
2023/02/06 03:21:22;;;;;;;41.43;35.80;;;5.80;99.90;;;;;;10520879;28;20234;-80
2023/02/06 03:26:28;;;;;;;44.58;38.50;;;5.80;99.90;;;;;;10534955;28;20214;-79
2023/02/06 03:31:34;;;;;;;40.30;35.00;;;5.90;99.90;;;;;;10510816;28;20950;-80
2023/02/06 03:36:37;;;;;;;42.50;37.43;;;5.90;99.90;;;;;;10512195;28;20214;-78
2023/02/06 03:41:40;;;;;;;42.13;35.80;;;5.80;99.90;;;;;;10530280;28;20236;-78
2023/02/06 03:46:44;;;;;;;41.43;36.40;;;5.90;99.90;;;;;;10506974;28;20301;-79
2023/02/06 03:51:51;;;;;;;45.10;38.50;;;6.00;99.90;;;;;;10531006;28;20472;-78
2023/02/06 03:56:55;;;;;;;44.20;38.40;;;6.00;99.90;;;;;;10514540;28;20311;-79
2023/02/06 04:02:01;;;;;;;44.20;36.30;;;5.90;99.90;;;;;;10532271;28;20603;-79
2023/02/06 04:07:11;;;;;;;42.73;37.27;;;5.80;99.90;;;;;;10526345;28;20575;-80
2023/02/06 04:12:14;;;;;;;42.83;36.60;;;5.80;99.90;;;;;;10523568;28;20203;-78
2023/02/06 04:17:16;;;;;;;41.70;37.30;;;5.70;99.90;;;;;;10522334;28;20241;-77
2023/02/06 04:22:19;;;;;;;47.27;34.97;;;5.70;99.90;;;;;;10504575;28;20223;-79
2023/02/06 04:27:21;;;;;;;44.47;37.77;;;5.70;99.90;;;;;;10487196;28;20223;-79
2023/02/06 04:32:24;;;;;;;40.42;36.15;;;5.70;99.90;;;;;;10521916;28;20559;-82
2023/02/06 04:37:27;;;;;;;40.47;35.47;;;5.80;99.90;;;;;;10521530;28;20235;-79
2023/02/06 04:42:29;;;;;;;44.47;37.20;;;6.00;99.90;;;;;;10503815;28;20249;-79
2023/02/06 04:47:31;;;;;;;42.20;37.33;;;5.90;99.90;;;;;;10520959;28;20227;-78
2023/02/06 04:52:35;;;;;;;42.47;38.10;;;5.80;99.90;;;;;;10503468;28;20967;-79
2023/02/06 04:57:37;;;;;;;41.27;36.93;;;5.70;99.90;;;;;;10521391;28;20231;-78
2023/02/06 05:02:39;;;;;;;40.37;35.97;;;5.70;99.90;;;;;;10520031;28;20599;-78
2023/02/06 05:07:42;;;;;;;43.63;38.97;;;5.60;99.90;;;;;;10513609;28;20231;-79
2023/02/06 05:12:49;;;;;;;40.25;36.10;;;5.60;99.90;;;;;;10517098;28;20682;-81
2023/02/06 05:17:51;;;;;;;38.63;34.77;;;5.70;99.90;;;;;;10519783;28;20228;-78
2023/02/06 05:22:55;;;;;;;41.13;36.13;;;5.80;99.90;;;;;;10502682;28;20585;-79
2023/02/06 05:27:57;;;;;;;42.30;37.63;;;5.70;99.90;;;;;;10485902;28;20224;-79
2023/02/06 05:32:59;;;;;;;38.27;34.37;;;5.70;99.90;;;;;;10497694;28;20680;-79
2023/02/06 05:38:02;;;;;;;42.80;38.57;;;5.60;99.90;;;;;;10521688;28;20228;-82
2023/02/06 05:43:04;;;;;;;40.90;36.67;;;5.60;99.90;;;;;;10524058;28;20223;-80
2023/02/06 05:48:06;;;;;;;39.45;35.35;;;5.50;99.90;;;;;;10489420;28;20228;-79
2023/02/06 05:53:10;;;;;;;38.73;34.93;;;5.70;99.90;;;;;;10525473;28;20196;-82
2023/02/06 05:58:12;;;;;;;37.87;33.97;;;5.80;99.90;;;;;;10504241;28;20790;-78
2023/02/06 06:03:14;;;;;;;36.95;33.03;;;5.70;99.90;;;;;;10516031;28;20224;-81
2023/02/06 06:08:17;;;;;;;37.20;33.43;;;5.70;99.90;;;;;;10492200;28;20227;-79
2023/02/06 06:13:20;;;;;;;36.58;33.08;;;5.70;99.90;;;;;;10489653;28;20239;-81
2023/02/06 06:18:22;;;;;;;41.40;36.63;;;5.70;99.90;;;;;;10518502;28;20362;-80
2023/02/06 06:23:25;;;;;;;37.57;33.67;;;5.80;99.90;;;;;;10506651;28;20227;-81
2023/02/06 06:28:27;;;;;;;39.30;35.20;;;5.70;99.90;;;;;;10494292;28;20235;-80
2023/02/06 06:33:29;;;;;;;37.30;33.87;;;5.60;99.90;;;;;;10490453;28;20227;-81
2023/02/06 06:38:33;;;;;;;37.65;34.05;;;5.60;99.90;;;;;;10504327;28;20707;-79
2023/02/06 06:43:35;;;;;;;34.42;30.98;;;5.70;99.90;;;;;;10505864;28;20322;-77
2023/02/06 06:48:37;;;;;;;33.40;30.20;;;5.80;99.90;;;;;;10486013;28;20362;-80
2023/02/06 06:53:40;;;;;;;34.50;31.20;;;5.80;99.90;;;;;;10491664;28;20863;-81
2023/02/06 06:58:43;;;;;;;33.83;30.53;;;5.70;99.90;;;;;;10518996;28;20241;-79
2023/02/06 07:03:47;;;;;;;31.47;28.37;;;5.60;99.90;;;;;;10517453;28;20227;-79
2023/02/06 07:08:50;;;;;;;30.93;28.10;;;5.50;99.90;;;;;;10506111;28;20234;-79
2023/02/06 07:13:52;;;;;;;32.77;29.50;;;5.50;99.90;;;;;;10504747;28;20303;-81
2023/02/06 07:18:54;;;;;;;33.93;29.87;;;5.40;99.90;;;;;;10487125;28;20305;-81
2023/02/06 07:23:58;;;;;;;31.37;28.30;;;5.40;99.90;;;;;;10522115;28;20234;-78
2023/02/06 07:29:00;;;;;;;29.80;26.70;;;5.40;99.90;;;;;;10517690;28;20249;-81
2023/02/06 07:34:02;;;;;;;31.17;28.07;;;5.40;99.90;;;;;;10523684;28;20223;-81
2023/02/06 07:39:06;;;;;;;28.17;25.30;;;5.40;99.90;;;;;;10527033;28;20235;-80
2023/02/06 07:44:09;;;;;;;31.27;28.00;;;5.50;99.90;;;;;;10531270;28;20236;-81
2023/02/06 07:49:13;;;;;;;29.17;26.20;;;5.50;99.90;;;;;;10566934;22;20753;-77
2023/02/06 08:00:12;;;;;;;28.30;25.30;;;5.70;99.90;;;;;;10540899;28;20220;-75
2023/02/06 08:05:14;;;;;;;27.63;25.03;;;5.60;99.90;;;;;;10525433;28;20207;-76
2023/02/06 08:10:18;;;;;;;28.57;25.47;;;5.60;99.90;;;;;;10527168;28;20224;-76
2023/02/06 08:15:20;;;;;;;26.60;24.00;;;5.40;99.90;;;;;;10524267;28;20234;-77
2023/02/06 08:20:22;;;;;;;26.80;23.95;;;5.40;99.90;;;;;;10526779;28;20322;-76
2023/02/06 08:25:25;;;;;;;25.33;22.90;;;5.60;99.90;;;;;;10528014;28;20213;-77
2023/02/06 08:30:28;;;;;;;24.47;22.00;;;5.70;99.90;;;;;;10508816;28;20216;-76
2023/02/06 08:35:30;;;;;;;23.48;21.25;;;5.70;99.90;;;;;;10525359;28;20298;-77
2023/02/06 08:40:33;;;;;;;22.87;20.67;;;5.80;99.90;;;;;;10526297;28;20218;-76
2023/02/06 08:45:35;;;;;;;22.03;19.97;;;5.90;99.90;;;;;;10526018;28;20219;-76
2023/02/06 08:50:38;;;;;;;20.03;18.23;;;5.80;99.90;;;;;;10521523;28;20730;-76
2023/02/06 08:55:41;;;;;;;24.80;19.60;;;5.80;99.90;;;;;;10524025;28;20227;-77
2023/02/06 09:00:43;;;;;;;18.02;16.30;;;5.80;99.90;;;;;;10526124;28;20227;-76
2023/02/06 09:05:45;;;;;;;16.33;14.57;;;5.90;99.90;;;;;;10521778;28;20265;-76
2023/02/06 09:10:49;;;;;;;15.37;13.83;;;6.10;99.90;;;;;;10523138;28;20208;-76
2023/02/06 09:15:52;;;;;;;16.60;14.90;;;6.00;99.90;;;;;;10505810;28;20295;-77
2023/02/06 09:21:04;;;;;;;15.53;14.00;;;5.90;99.90;;;;;;10522805;28;20224;-77
2023/02/06 09:26:07;;;;;;;16.00;13.40;;;5.80;99.90;;;;;;10522219;28;20239;-77
2023/02/06 09:31:10;;;;;;;14.50;13.20;;;5.70;99.90;;;;;;10523367;28;20282;-77
2023/02/06 09:36:14;;;;;;;16.93;15.33;;;5.60;99.90;;;;;;10523704;28;20200;-76
2023/02/06 09:41:21;;;;;;;15.27;13.83;;;5.60;99.90;;;;;;10522092;28;20222;-76
2023/02/06 09:46:30;;;;;;;16.23;14.63;;;5.60;99.90;;;;;;10522242;28;20693;-76
2023/02/06 09:51:43;;;;;;;14.87;13.47;;;5.60;99.90;;;;;;10521321;28;20310;-76
2023/02/06 09:56:52;;;;;;;15.27;13.77;;;5.60;99.90;;;;;;10521100;28;20231;-76
2023/02/06 10:02:13;;;;;;;14.57;13.00;;;5.60;99.90;;;;;;10503804;28;20228;-76
2023/02/06 10:07:31;;;;;;;11.93;10.83;;;5.70;99.90;;;;;;10520717;28;20318;-76
2023/02/06 10:12:40;;;;;;;12.13;11.13;;;5.80;99.90;;;;;;10521995;28;20729;-76
2023/02/06 10:17:51;;;;;;;12.97;11.67;;;5.80;99.90;;;;;;10522119;28;20441;-76
2023/02/06 10:23:03;;;;;;;10.80;9.80;;;6.00;99.90;;;;;;10522055;28;20252;-77
2023/02/06 10:28:20;;;;;;;11.30;10.20;;;6.30;99.90;;;;;;10520751;28;20458;-77
2023/02/06 10:33:27;;;;;;;8.20;7.53;;;6.50;99.90;;;;;;10535620;28;20306;-76
2023/02/06 10:38:59;;;;;;;7.77;7.07;;;6.40;99.90;;;;;;10519493;28;20251;-77
2023/02/06 10:44:18;;;;;;;9.37;8.40;;;6.20;99.90;;;;;;10483429;28;20314;-76
2023/02/06 10:49:26;;;;;;;9.20;8.33;;;6.10;99.90;;;;;;10518201;28;20733;-77
2023/02/06 10:54:34;;;;;;;7.20;6.65;;;6.00;99.90;;;;;;10517787;28;20685;-77
2023/02/06 10:59:43;;;;;;;8.77;6.20;;;6.10;99.90;;;;;;10515126;28;20260;-77
2023/02/06 11:04:51;;;;;;;5.63;5.20;;;6.20;98.90;;;;;;10508484;28;20235;-77
2023/02/06 11:09:53;;;;;;;6.70;6.00;;;6.10;97.10;;;;;;10511822;28;20310;-77
2023/02/06 11:15:00;;;;;;;6.87;5.83;;;5.90;99.90;;;;;;10523562;28;20333;-77
2023/02/06 11:20:16;;;;;;;6.63;6.03;;;6.00;99.20;;;;;;10524297;28;20728;-77
2023/02/06 11:25:23;;;;;;;7.30;6.40;;;6.00;98.70;;;;;;10527751;28;20200;-77
2023/02/06 11:30:32;;;;;;;5.80;5.30;;;6.00;99.20;;;;;;10524638;28;20603;-78
2023/02/06 11:35:37;;;;;;;5.73;5.20;;;6.10;97.80;;;;;;10506106;28;20586;-77
2023/02/06 11:40:40;;;;;;;5.70;5.20;;;6.10;98.40;;;;;;10525928;28;20216;-78
2023/02/06 11:45:43;;;;;;;7.33;6.73;;;6.10;97.70;;;;;;10525977;28;20204;-78
2023/02/06 11:50:54;;;;;;;8.60;7.77;;;6.20;97.60;;;;;;10527722;28;20314;-76
2023/02/06 11:56:02;;;;;;;7.50;6.90;;;6.30;97.20;;;;;;10546281;28;20199;-78
2023/02/06 12:01:08;;;;;;;8.40;6.63;;;6.20;97.90;;;;;;10530539;28;20224;-78
2023/02/06 12:06:13;;;;;;;7.47;6.87;;;6.30;97.80;;;;;;10532228;28;20210;-78
2023/02/06 12:11:23;;;;;;;7.67;6.90;;;6.30;98.20;;;;;;10544305;28;20329;-78
2023/02/06 12:16:27;;;;;;;7.60;7.00;;;6.20;97.80;;;;;;10530506;28;20857;-78
2023/02/06 12:21:41;;;;;;;7.90;7.10;;;6.10;97.80;;;;;;10532110;28;20216;-77
2023/02/06 12:26:45;;;;;;;8.63;7.93;;;6.10;98.70;;;;;;10535742;28;20206;-76
2023/02/06 12:31:54;;;;;;;8.30;7.60;;;6.30;99.70;;;;;;10534969;28;20605;-76
2023/02/06 12:37:09;;;;;;;8.30;7.50;;;6.40;98.30;;;;;;10535182;28;20222;-78
2023/02/06 12:42:30;;;;;;;9.77;8.40;;;6.30;99.40;;;;;;10534485;28;20589;-78
2023/02/06 12:47:40;;;;;;;9.37;8.50;;;6.40;97.80;;;;;;10529665;28;20219;-78
2023/02/06 12:52:45;;;;;;;9.40;8.60;;;6.40;99.10;;;;;;10528593;28;20208;-78
2023/02/06 12:57:47;;;;;;;9.90;9.00;;;6.30;98.00;;;;;;10530702;28;20302;-79
2023/02/06 13:03:22;;;;;;;11.07;9.87;;;6.20;96.60;;;;;;10528469;28;20231;-78
2023/02/06 13:08:37;;;;;;;11.03;9.47;;;6.10;98.30;;;;;;10541537;28;20311;-79
2023/02/06 13:13:41;;;;;;;11.07;10.00;;;6.10;98.40;;;;;;10527019;28;20457;-77
2023/02/06 13:18:54;;;;;;;10.93;9.63;;;6.00;99.20;;;;;;10540612;28;20285;-76
2023/02/06 13:24:20;;;;;;;10.57;9.60;;;6.10;99.60;;;;;;10501140;28;20450;-78
2023/02/06 13:29:24;;;;;;;8.23;7.43;;;6.30;99.50;;;;;;10519432;28;20560;-77
2023/02/06 13:34:28;;;;;;;7.37;6.67;;;6.40;99.30;;;;;;10519918;28;20195;-77
2023/02/06 13:39:32;;;;;;;6.57;5.90;;;6.30;96.90;;;;;;10522091;28;20223;-78
2023/02/06 13:44:38;;;;;;;6.30;5.70;;;6.30;95.30;;;;;;10521354;28;20228;-77
2023/02/06 13:50:17;;;;;;;5.20;4.80;;;6.10;96.90;;;;;;10569913;22;20301;-82
2023/02/06 13:55:36;;;;;;;5.55;5.07;;;6.20;97.60;;;;;;10512533;28;20274;-79
2023/02/06 14:00:41;;;;;;;6.07;5.60;;;6.40;97.50;;;;;;10540389;28;20295;-80
2023/02/06 14:05:51;;;;;;;5.87;5.37;;;6.50;97.90;;;;;;10517895;28;20234;-79
2023/02/06 14:16:42;;;;;;;6.27;4.93;;;6.50;96.60;;;;;;10511689;28;20268;-79
2023/02/06 14:21:51;;;;;;;5.68;5.03;;;6.50;97.30;;;;;;10497697;28;20710;-79
2023/02/06 14:27:03;;;;;;;5.80;5.30;;;6.60;96.40;;;;;;10518121;28;20287;-79
2023/02/06 14:32:35;;;;;;;5.20;4.70;;;6.80;97.40;;;;;;10518699;28;20285;-79
2023/02/06 14:37:53;;;;;;;4.90;4.50;;;6.70;95.30;;;;;;10517150;28;20250;-79
2023/02/06 14:42:58;;;;;;;5.40;4.90;;;6.50;96.70;;;;;;10502106;28;20586;-79
2023/02/06 14:48:02;;;;;;;6.17;5.63;;;6.40;97.70;;;;;;10519953;28;20231;-79
2023/02/06 14:53:09;;;;;;;5.73;5.33;;;6.30;97.80;;;;;;10527005;28;20204;-79
2023/02/06 14:58:24;;;;;;;6.37;5.87;;;6.30;97.30;;;;;;10525050;28;20227;-79
2023/02/06 15:03:27;;;;;;;5.97;5.10;;;6.30;98.50;;;;;;10525539;28;20231;-79
2023/02/06 15:08:29;;;;;;;6.30;5.80;;;6.30;98.00;;;;;;10525834;28;20251;-79
2023/02/06 15:13:34;;;;;;;6.87;5.37;;;6.20;97.50;;;;;;10509146;28;20200;-79
2023/02/06 15:18:37;;;;;;;5.83;5.43;;;6.20;97.20;;;;;;10527437;28;20799;-79
2023/02/06 15:23:50;;;;;;;6.00;5.50;;;6.20;96.60;;;;;;10539473;28;20252;-79
2023/02/06 15:28:58;;;;;;;5.63;5.23;;;6.10;97.00;;;;;;10534949;28;20222;-81
2023/02/06 15:34:02;;;;;;;5.87;5.27;;;6.00;96.90;;;;;;10507370;28;20207;-79
2023/02/06 15:39:08;;;;;;;7.07;6.37;;;6.00;96.90;;;;;;10526464;28;20224;-81
2023/02/06 15:44:19;;;;;;;8.02;5.85;;;6.00;98.30;;;;;;10509616;28;20231;-80
2023/02/06 15:49:35;;;;;;;7.57;6.27;;;6.20;97.50;;;;;;10530808;28;20241;-81
2023/02/06 15:54:39;;;;;;;6.00;5.60;;;6.20;96.50;;;;;;10517096;28;20714;-80
2023/02/06 15:59:43;;;;;;;6.50;5.90;;;6.00;97.00;;;;;;10534628;28;20231;-79
2023/02/06 16:04:51;;;;;;;6.70;6.10;;;6.00;96.90;;;;;;10507363;28;20227;-81
2023/02/06 16:09:55;;;;;;;6.23;5.63;;;5.90;98.70;;;;;;10505506;28;20253;-79
2023/02/06 16:15:00;;;;;;;6.93;6.33;;;5.90;97.70;;;;;;10521504;28;20206;-79
2023/02/06 16:20:04;;;;;;;5.80;5.30;;;5.90;96.80;;;;;;10505482;28;20227;-79
2023/02/06 16:25:23;;;;;;;6.50;5.90;;;5.80;98.00;;;;;;10523069;28;20706;-79
2023/02/06 16:30:29;;;;;;;5.77;5.17;;;5.80;98.30;;;;;;10521678;28;20232;-79
2023/02/06 16:35:31;;;;;;;6.23;5.63;;;5.80;98.60;;;;;;10506402;28;20298;-79
2023/02/06 16:40:33;;;;;;;5.97;5.47;;;5.80;98.70;;;;;;10522056;28;20234;-79
2023/02/06 16:45:36;;;;;;;7.87;7.07;;;5.80;98.50;;;;;;10507097;28;20273;-79
2023/02/06 16:50:39;;;;;;;9.00;8.10;;;5.80;98.40;;;;;;10511048;28;20237;-81
2023/02/06 16:55:42;;;;;;;8.70;6.77;;;5.80;98.10;;;;;;10523782;28;20241;-79
2023/02/06 17:00:46;;;;;;;8.73;7.93;;;5.80;98.30;;;;;;10521452;28;20223;-82
2023/02/06 17:05:50;;;;;;;11.20;9.10;;;5.90;98.70;;;;;;10499070;28;20597;-79
2023/02/06 17:10:52;;;;;;;7.50;6.80;;;5.90;99.40;;;;;;10518261;28;20296;-79
2023/02/06 17:15:56;;;;;;;8.77;7.07;;;6.00;98.90;;;;;;10519334;28;20551;-79
2023/02/06 17:20:58;;;;;;;6.18;5.68;;;6.00;99.30;;;;;;10502482;28;20308;-80
2023/02/06 17:26:00;;;;;;;6.47;5.78;;;6.10;98.50;;;;;;10487409;28;20307;-80
2023/02/06 17:31:04;;;;;;;5.70;5.20;;;6.20;97.00;;;;;;10518267;28;20238;-79
2023/02/06 17:36:11;;;;;;;6.23;5.67;;;6.10;97.00;;;;;;10531461;28;20265;-79
2023/02/06 17:41:13;;;;;;;5.90;5.03;;;6.00;97.40;;;;;;10500749;28;20224;-78
2023/02/06 17:46:16;;;;;;;5.27;4.77;;;5.90;96.40;;;;;;10516024;28;20309;-78
2023/02/06 17:51:18;;;;;;;6.15;5.00;;;5.90;96.70;;;;;;10518821;28;20274;-78
2023/02/06 17:56:21;;;;;;;5.60;5.10;;;5.90;95.90;;;;;;10499944;28;20204;-77
2023/02/06 18:01:25;;;;;;;5.40;4.90;;;6.10;96.60;;;;;;10512520;28;20369;-77
2023/02/06 18:06:31;;;;;;;5.03;4.53;;;6.00;97.50;;;;;;10499339;28;20581;-77
2023/02/06 18:11:34;;;;;;;5.90;5.40;;;5.90;97.10;;;;;;10499941;28;20755;-77
2023/02/06 18:16:41;;;;;;;6.20;5.60;;;5.80;96.90;;;;;;10515717;28;20213;-78
2023/02/06 18:21:43;;;;;;;5.20;4.80;;;5.80;97.40;;;;;;10513251;28;20751;-77
2023/02/06 18:26:46;;;;;;;7.53;6.83;;;5.70;96.80;;;;;;10513942;28;20224;-77
2023/02/06 18:31:49;;;;;;;11.63;10.43;;;5.70;97.30;;;;;;10497478;28;20224;-77
2023/02/06 18:36:51;;;;;;;6.35;5.85;;;5.80;96.70;;;;;;10518072;28;20315;-77
2023/02/06 18:47:12;;;;;;;5.90;5.50;;;6.00;97.80;;;;;;10489198;28;20226;-78
2023/02/06 18:52:15;;;;;;;5.87;5.37;;;5.90;97.40;;;;;;10488414;28;20206;-77
2023/02/06 18:57:17;;;;;;;6.60;6.10;;;6.00;97.30;;;;;;10506964;28;20445;-78
2023/02/06 19:02:20;;;;;;;6.30;5.80;;;6.00;96.80;;;;;;10511876;28;20219;-77
2023/02/06 19:07:22;;;;;;;6.63;5.93;;;5.90;96.80;;;;;;10497438;28;20255;-77
2023/02/06 19:12:26;;;;;;;7.10;6.57;;;5.80;96.10;;;;;;10480373;28;20405;-77
2023/02/06 19:17:30;;;;;;;7.75;7.00;;;5.60;98.50;;;;;;10513136;28;20275;-77
2023/02/06 19:22:33;;;;;;;7.80;7.10;;;5.70;99.60;;;;;;10512568;28;20288;-77
2023/02/06 19:27:37;;;;;;;7.53;6.93;;;5.70;99.40;;;;;;10510810;28;20228;-78
2023/02/06 19:32:40;;;;;;;8.83;7.80;;;5.60;99.90;;;;;;10504449;28;20691;-77
2023/02/06 19:37:42;;;;;;;8.30;7.50;;;5.50;99.90;;;;;;10482207;28;20232;-77
2023/02/06 19:42:44;;;;;;;8.20;7.50;;;5.50;99.90;;;;;;10484477;28;20224;-77
2023/02/06 19:47:48;;;;;;;8.73;7.83;;;5.50;99.90;;;;;;10534659;22;20280;-77
2023/02/06 19:52:51;;;;;;;8.13;7.53;;;5.50;99.90;;;;;;10606977;27;20213;-77
2023/02/06 19:57:53;;;;;;;9.10;8.30;;;5.40;99.90;;;;;;10609419;27;20508;-77
2023/02/06 20:02:56;;;;;;;8.93;8.17;;;5.40;99.90;;;;;;10560847;27;20570;-76
2023/02/06 20:07:58;;;;;;;11.07;7.57;;;5.40;99.90;;;;;;10555087;27;20232;-77
2023/02/06 20:13:00;;;;;;;8.30;7.60;;;5.40;99.90;;;;;;10578378;27;20205;-76
2023/02/06 20:18:04;;;;;;;8.60;7.90;;;5.40;99.90;;;;;;10555613;27;20312;-77
2023/02/06 20:23:06;;;;;;;9.90;8.67;;;5.40;99.90;;;;;;10572492;27;21093;-77
2023/02/06 20:28:08;;;;;;;9.02;8.15;;;5.40;99.90;;;;;;10573030;27;20270;-77
2023/02/06 20:33:12;;;;;;;9.03;8.27;;;5.50;99.90;;;;;;10554509;27;20205;-77
2023/02/06 20:38:14;;;;;;;10.63;9.57;;;5.50;99.90;;;;;;10567191;27;20281;-77
2023/02/06 20:43:16;;;;;;;8.33;7.63;;;5.60;99.90;;;;;;10539938;27;21002;-77
2023/02/06 20:48:19;;;;;;;11.17;9.23;;;5.60;99.90;;;;;;10561993;27;20296;-77
2023/02/06 20:53:21;;;;;;;10.43;9.53;;;5.50;99.90;;;;;;10536280;27;20443;-77
2023/02/06 20:58:25;;;;;;;8.80;8.10;;;5.40;99.90;;;;;;10572710;27;20870;-77
2023/02/06 21:03:28;;;;;;;10.97;9.83;;;5.30;99.90;;;;;;10566066;27;20219;-77
2023/02/06 21:08:30;;;;;;;10.93;10.02;;;5.30;99.90;;;;;;10555459;27;20230;-79
2023/02/06 21:13:34;;;;;;;10.53;9.53;;;5.40;99.90;;;;;;10564001;27;20237;-78
2023/02/06 21:18:41;;;;;;;11.23;10.27;;;5.50;99.90;;;;;;10569380;27;20218;-79
2023/02/06 21:23:43;;;;;;;11.77;10.70;;;5.40;99.90;;;;;;10570878;27;20219;-77
2023/02/06 21:28:46;;;;;;;10.73;9.57;;;5.30;99.90;;;;;;10575313;27;20234;-79
2023/02/06 21:33:53;;;;;;;11.57;10.10;;;5.30;99.90;;;;;;10549597;27;20203;-78
2023/02/06 21:38:56;;;;;;;10.63;9.73;;;5.30;99.90;;;;;;10561951;27;20571;-77
2023/02/06 21:43:58;;;;;;;11.40;10.40;;;5.30;99.90;;;;;;10572918;27;20334;-79
2023/02/06 21:49:01;;;;;;;11.20;10.30;;;5.30;99.90;;;;;;10543181;27;20239;-79
2023/02/06 21:54:03;;;;;;;11.20;10.20;;;5.30;99.90;;;;;;10558575;27;20837;-79
2023/02/06 21:59:06;;;;;;;10.57;9.70;;;5.20;99.90;;;;;;10572746;27;20305;-79
2023/02/06 22:04:11;;;;;;;10.43;9.57;;;5.20;99.90;;;;;;10551605;27;20231;-79
2023/02/06 22:09:17;;;;;;;19.87;17.77;;;5.20;99.90;;;;;;10539978;27;20249;-78
2023/02/06 22:14:19;;;;;;;11.07;10.10;;;5.20;99.90;;;;;;10554596;27;20203;-77
2023/02/06 22:19:25;;;;;;;10.70;9.80;;;5.20;99.90;;;;;;10574381;27;20651;-77
2023/02/06 22:24:27;;;;;;;10.30;9.37;;;5.20;99.90;;;;;;10569272;27;20229;-77
2023/02/06 22:29:29;;;;;;;10.95;9.95;;;5.20;99.90;;;;;;10560026;27;20662;-77
2023/02/06 22:34:33;;;;;;;10.70;9.80;;;5.30;99.90;;;;;;10534475;27;20576;-77
2023/02/06 22:39:35;;;;;;;10.40;9.60;;;5.30;99.90;;;;;;10538911;28;20233;-77
2023/02/06 22:44:37;;;;;;;11.27;10.20;;;5.20;99.90;;;;;;10575544;28;20320;-79
2023/02/06 22:49:41;;;;;;;11.47;10.47;;;5.40;99.90;;;;;;10554573;28;20308;-77
2023/02/06 22:54:43;;;;;;;12.03;10.83;;;5.40;99.90;;;;;;10562335;28;20636;-79
2023/02/06 22:59:45;;;;;;;11.00;10.00;;;5.40;99.90;;;;;;10534460;28;20228;-78
2023/02/06 23:04:49;;;;;;;11.43;10.30;;;5.40;99.90;;;;;;10562720;28;20267;-78
2023/02/06 23:09:51;;;;;;;12.40;10.80;;;5.60;99.90;;;;;;10533185;27;20233;-78
2023/02/06 23:14:53;;;;;;;12.40;11.05;;;5.40;97.50;;;;;;10580062;27;20990;-79
2023/02/06 23:19:56;;;;;;;11.57;10.67;;;5.20;98.10;;;;;;10564777;27;20321;-77
2023/02/06 23:24:58;;;;;;;12.20;11.10;;;5.10;98.90;;;;;;10545680;27;20678;-78
2023/02/06 23:30:00;;;;;;;13.57;12.30;;;4.90;98.50;;;;;;10582267;27;20227;-77
2023/02/06 23:35:04;;;;;;;13.07;11.87;;;4.80;98.90;;;;;;10569774;27;20215;-78
2023/02/06 23:40:07;;;;;;;11.43;10.53;;;4.70;99.90;;;;;;10584183;27;20219;-78
2023/02/06 23:45:10;;;;;;;12.25;11.18;;;4.70;97.80;;;;;;10567305;27;20686;-78
2023/02/06 23:50:13;;;;;;;13.40;12.30;;;4.80;99.10;;;;;;10581978;27;20266;-79
2023/02/06 23:55:16;;;;;;;12.97;11.77;;;4.80;99.50;;;;;;10581704;27;20249;-79
